createdAt,value
2022-11-27T00:02:24.316Z,27.13
2022-11-27T00:04:51.031Z,20.90
2022-11-27T00:07:17.726Z,23.63
2022-11-27T00:09:44.675Z,25.80
2022-11-27T00:12:11.419Z,30.90
2022-11-27T00:14:41.186Z,24.93
2022-11-27T00:17:07.896Z,20.87
2022-11-27T00:19:34.569Z,25.13
2022-11-27T00:22:01.222Z,22.73
2022-11-27T00:24:27.982Z,26.73
2022-11-27T00:26:54.839Z,24.13
2022-11-27T00:29:21.536Z,28.00
2022-11-27T00:31:48.318Z,20.87
2022-11-27T00:34:15.106Z,27.87
2022-11-27T00:36:46.619Z,29.10
2022-11-27T00:39:15.296Z,27.33
2022-11-27T00:41:42.057Z,31.13
2022-11-27T00:44:08.790Z,31.43
2022-11-27T00:46:35.875Z,27.73
2022-11-27T00:49:05.282Z,28.70
2022-11-27T00:51:32.390Z,28.80
2022-11-27T00:53:59.453Z,24.37
2022-11-27T00:56:28.680Z,23.03
2022-11-27T00:58:56.101Z,25.13
2022-11-27T01:01:25.616Z,25.60
2022-11-27T01:03:52.343Z,26.97
2022-11-27T01:06:22.156Z,25.67
2022-11-27T01:08:49.753Z,31.90
2022-11-27T01:11:25.706Z,18.67
2022-11-27T01:13:53.411Z,27.83
2022-11-27T01:16:23.859Z,22.40
2022-11-27T01:18:51.574Z,24.07
2022-11-27T01:21:20.495Z,28.13
2022-11-27T01:23:47.897Z,22.50
2022-11-27T01:26:15.808Z,21.17
2022-11-27T01:28:42.558Z,27.63
2022-11-27T01:31:16.678Z,24.43
2022-11-27T01:33:44.470Z,29.27
2022-11-27T01:36:15.906Z,29.67
2022-11-27T01:38:42.781Z,26.50
2022-11-27T01:41:30.828Z,28.67
2022-11-27T01:44:03.216Z,27.93
2022-11-27T01:47:09.315Z,23.63
2022-11-27T01:49:43.237Z,27.50
2022-11-27T01:52:16.959Z,30.27
2022-11-27T01:54:48.947Z,18.43
2022-11-27T01:57:24.826Z,25.30
2022-11-27T01:59:54.736Z,24.80
2022-11-27T02:02:21.590Z,24.67
2022-11-27T02:04:48.660Z,23.50
2022-11-27T02:07:15.701Z,22.83
2022-11-27T02:09:42.563Z,26.60
2022-11-27T02:12:25.680Z,20.73
2022-11-27T02:15:09.046Z,22.40
2022-11-27T02:17:57.740Z,23.83
2022-11-27T02:20:38.034Z,17.17
2022-11-27T02:23:10.362Z,25.30
2022-11-27T02:25:55.134Z,23.60
2022-11-27T02:28:59.284Z,20.33
2022-11-27T02:31:47.292Z,20.37
2022-11-27T02:34:20.095Z,23.43
2022-11-27T02:36:54.698Z,22.00
2022-11-27T02:39:31.420Z,21.73
2022-11-27T02:42:11.808Z,21.23
2022-11-27T02:44:44.171Z,19.57
2022-11-27T02:47:12.691Z,20.87
2022-11-27T02:49:41.454Z,24.90
2022-11-27T02:52:09.571Z,19.73
2022-11-27T02:54:37.745Z,23.27
2022-11-27T02:57:06.483Z,21.67
2022-11-27T02:59:34.804Z,26.30
2022-11-27T03:02:07.000Z,25.47
2022-11-27T03:04:44.648Z,22.43
2022-11-27T03:07:25.744Z,21.13
2022-11-27T03:09:58.749Z,18.70
2022-11-27T03:12:25.518Z,21.50
2022-11-27T03:14:52.301Z,18.73
2022-11-27T03:17:33.205Z,18.47
2022-11-27T03:20:16.381Z,21.00
2022-11-27T03:22:43.573Z,26.83
2022-11-27T03:25:10.488Z,20.07
2022-11-27T03:27:44.563Z,19.43
2022-11-27T03:30:14.534Z,20.30
2022-11-27T03:32:41.398Z,19.43
2022-11-27T03:35:11.317Z,24.80
2022-11-27T03:37:38.335Z,20.33
2022-11-27T03:40:06.435Z,20.47
2022-11-27T03:42:58.161Z,17.80
2022-11-27T03:45:38.220Z,22.80
2022-11-27T03:48:33.941Z,20.53
2022-11-27T03:51:14.764Z,20.00
2022-11-27T03:54:04.749Z,18.40
2022-11-27T03:56:42.954Z,14.87
2022-11-27T03:59:17.948Z,21.13
2022-11-27T04:01:45.104Z,16.37
2022-11-27T04:04:11.908Z,17.47
2022-11-27T04:06:38.879Z,14.40
2022-11-27T04:09:05.744Z,17.33
2022-11-27T04:11:32.554Z,16.67
2022-11-27T04:13:59.335Z,24.20
2022-11-27T04:16:26.224Z,17.30
2022-11-27T04:18:52.978Z,17.60
2022-11-27T04:21:19.885Z,15.07
2022-11-27T04:23:46.545Z,16.80
2022-11-27T04:26:13.448Z,15.93
2022-11-27T04:28:40.400Z,17.70
2022-11-27T04:31:07.406Z,14.03
2022-11-27T04:33:34.254Z,15.80
2022-11-27T04:36:00.959Z,14.23
2022-11-27T04:38:27.812Z,16.37
2022-11-27T04:40:54.584Z,16.97
2022-11-27T04:43:21.323Z,20.23
2022-11-27T04:45:48.069Z,16.40
2022-11-27T04:48:14.874Z,13.97
2022-11-27T04:50:41.633Z,17.13
2022-11-27T04:53:08.433Z,16.70
2022-11-27T04:55:35.721Z,17.47
2022-11-27T04:58:02.510Z,14.07
2022-11-27T05:00:29.321Z,19.13
2022-11-27T05:02:56.205Z,19.73
2022-11-27T05:05:22.961Z,18.27
2022-11-27T05:07:50.869Z,12.03
2022-11-27T05:10:18.058Z,11.07
2022-11-27T05:12:44.745Z,14.30
2022-11-27T05:15:11.542Z,14.77
2022-11-27T05:17:38.397Z,14.63
2022-11-27T05:20:06.044Z,13.20
2022-11-27T05:22:32.756Z,11.83
2022-11-27T05:24:59.419Z,16.57
2022-11-27T05:27:26.122Z,14.53
2022-11-27T05:29:52.862Z,17.00
2022-11-27T05:32:19.711Z,18.20
2022-11-27T05:34:48.601Z,14.70
2022-11-27T05:37:19.468Z,14.67
2022-11-27T05:39:46.953Z,15.03
2022-11-27T05:42:13.795Z,15.23
2022-11-27T05:44:40.684Z,18.43
2022-11-27T05:47:07.681Z,14.63
2022-11-27T05:49:34.553Z,10.30
2022-11-27T05:52:01.226Z,14.40
2022-11-27T05:54:28.114Z,16.53
2022-11-27T05:56:54.859Z,16.13
2022-11-27T05:59:21.685Z,14.30
2022-11-27T06:01:49.605Z,13.00
2022-11-27T06:04:16.617Z,12.33
2022-11-27T06:06:43.442Z,12.10
2022-11-27T06:09:13.410Z,12.33
2022-11-27T06:11:41.422Z,13.53
2022-11-27T06:14:11.857Z,14.63
2022-11-27T06:16:38.722Z,12.67
2022-11-27T06:19:05.613Z,18.43
2022-11-27T06:21:32.423Z,17.87
2022-11-27T06:23:59.331Z,16.93
2022-11-27T06:26:30.864Z,17.67
2022-11-27T06:28:59.710Z,12.47
2022-11-27T06:31:29.069Z,11.43
2022-11-27T06:33:56.723Z,14.60
2022-11-27T06:36:29.971Z,12.90
2022-11-27T06:38:58.018Z,18.57
2022-11-27T06:41:27.136Z,16.80
2022-11-27T06:43:55.139Z,19.23
2022-11-27T06:46:23.158Z,17.57
2022-11-27T06:48:52.155Z,15.43
2022-11-27T06:51:21.929Z,11.43
2022-11-27T06:53:49.592Z,14.47
2022-11-27T06:56:20.282Z,12.37
2022-11-27T06:58:50.448Z,19.57
2022-11-27T07:01:17.955Z,14.90
2022-11-27T07:03:46.085Z,16.17
2022-11-27T07:06:15.321Z,18.37
2022-11-27T07:08:42.392Z,15.47
2022-11-27T07:11:21.269Z,13.93
2022-11-27T07:13:49.300Z,16.47
2022-11-27T07:16:17.491Z,20.57
2022-11-27T07:18:49.923Z,15.13
2022-11-27T07:21:16.804Z,13.63
2022-11-27T07:23:44.342Z,18.43
2022-11-27T07:26:14.076Z,15.17
2022-11-27T07:28:43.801Z,17.60
2022-11-27T07:31:14.120Z,16.77
2022-11-27T07:33:41.157Z,18.40
2022-11-27T07:36:16.851Z,14.97
2022-11-27T07:38:44.691Z,14.30
2022-11-27T07:41:12.444Z,18.53
2022-11-27T07:43:39.734Z,18.10
2022-11-27T07:46:08.486Z,17.43
2022-11-27T07:48:35.388Z,17.87
2022-11-27T07:51:02.110Z,16.43
2022-11-27T07:53:28.825Z,16.60
2022-11-27T07:56:00.201Z,17.97
2022-11-27T07:58:26.880Z,19.57
2022-11-27T08:00:53.730Z,19.87
2022-11-27T08:03:20.505Z,17.40
2022-11-27T08:05:47.476Z,19.40
2022-11-27T08:08:14.433Z,23.77
2022-11-27T08:10:43.450Z,17.80
2022-11-27T08:13:12.801Z,19.07
2022-11-27T08:15:39.653Z,19.80
2022-11-27T08:18:06.513Z,21.90
2022-11-27T08:20:33.338Z,16.60
2022-11-27T08:23:02.929Z,19.27
2022-11-27T08:25:30.502Z,24.27
2022-11-27T08:27:57.262Z,23.00
2022-11-27T08:30:24.692Z,20.93
2022-11-27T08:32:51.513Z,19.13
2022-11-27T08:35:18.364Z,20.10
2022-11-27T08:37:45.173Z,19.27
2022-11-27T08:40:12.275Z,22.37
2022-11-27T08:42:38.973Z,22.83
2022-11-27T08:45:06.021Z,23.73
2022-11-27T08:47:33.854Z,22.20
2022-11-27T08:50:00.645Z,29.33
2022-11-27T08:52:27.407Z,22.47
2022-11-27T08:54:57.524Z,24.33
2022-11-27T08:57:25.116Z,21.93
2022-11-27T08:59:51.939Z,23.10
2022-11-27T09:02:18.710Z,23.70
2022-11-27T09:04:45.393Z,23.70
2022-11-27T09:07:15.906Z,25.37
2022-11-27T09:09:43.031Z,23.50
2022-11-27T09:12:09.943Z,26.00
2022-11-27T09:14:36.957Z,23.40
2022-11-27T09:17:03.850Z,23.23
2022-11-27T09:19:30.625Z,23.47
2022-11-27T09:21:57.690Z,24.90
2022-11-27T09:24:24.936Z,27.23
2022-11-27T09:26:51.787Z,25.50
2022-11-27T09:29:18.655Z,30.67
2022-11-27T09:31:45.434Z,24.43
2022-11-27T09:34:12.183Z,25.40
2022-11-27T09:36:38.884Z,23.77
2022-11-27T09:39:05.898Z,24.10
2022-11-27T09:41:33.737Z,23.77
2022-11-27T09:44:06.565Z,24.17
2022-11-27T09:46:37.255Z,27.27
2022-11-27T09:49:07.918Z,29.47
2022-11-27T09:51:36.639Z,24.87
2022-11-27T09:54:28.631Z,22.33
2022-11-27T09:56:56.513Z,22.40
2022-11-27T09:59:29.501Z,26.47
2022-11-27T10:01:57.016Z,25.33
2022-11-27T10:04:25.137Z,25.37
2022-11-27T10:07:18.965Z,23.00
2022-11-27T10:10:08.664Z,23.63
2022-11-27T10:12:38.099Z,27.60
2022-11-27T10:15:09.771Z,29.07
2022-11-27T10:18:01.482Z,25.03
2022-11-27T10:20:44.869Z,20.97
2022-11-27T10:23:14.607Z,23.40
2022-11-27T10:25:46.721Z,24.73
2022-11-27T10:28:13.579Z,30.87
2022-11-27T10:30:52.790Z,25.37
2022-11-27T10:33:30.326Z,25.80
2022-11-27T10:35:58.665Z,22.80
2022-11-27T10:38:31.800Z,20.43
2022-11-27T10:41:47.545Z,26.63
2022-11-27T10:44:31.690Z,23.47
2022-11-27T10:47:09.397Z,28.40
2022-11-27T10:49:40.349Z,23.67
2022-11-27T10:52:16.144Z,23.87
2022-11-27T10:54:45.605Z,25.50
2022-11-27T10:57:29.397Z,20.13
2022-11-27T11:00:05.777Z,19.07
2022-11-27T11:02:35.636Z,22.40
2022-11-27T11:06:11.628Z,21.43
2022-11-27T11:08:19.349Z,28.20
2022-11-27T11:10:52.704Z,23.83
2022-11-27T11:13:22.637Z,22.50
2022-11-27T11:15:58.349Z,25.10
2022-11-27T11:18:49.697Z,20.00
2022-11-27T11:21:27.273Z,21.10
2022-11-27T11:24:21.827Z,18.60
2022-11-27T11:26:52.595Z,21.40
2022-11-27T11:29:34.131Z,18.20
2022-11-27T11:32:11.474Z,16.23
2022-11-27T11:34:46.712Z,21.43
2022-11-27T11:37:33.518Z,20.07
2022-11-27T11:40:01.800Z,20.00
2022-11-27T11:42:34.494Z,23.00
2022-11-27T11:45:08.201Z,15.23
2022-11-27T11:47:36.821Z,21.23
2022-11-27T11:50:03.883Z,16.30
2022-11-27T11:52:39.024Z,19.53
2022-11-27T11:55:48.328Z,14.30
2022-11-27T11:58:49.293Z,15.83
2022-11-27T12:01:27.761Z,20.27
2022-11-27T12:04:13.629Z,15.07
2022-11-27T12:07:08.786Z,16.17
2022-11-27T12:09:35.570Z,17.83
2022-11-27T12:12:25.432Z,19.77
2022-11-27T12:15:12.132Z,21.07
2022-11-27T12:17:50.984Z,18.83
2022-11-27T12:20:25.161Z,16.83
2022-11-27T12:23:16.736Z,15.53
2022-11-27T12:25:53.529Z,16.07
2022-11-27T12:28:41.182Z,19.17
2022-11-27T12:31:26.053Z,17.20
2022-11-27T12:34:01.808Z,16.10
2022-11-27T12:36:47.378Z,18.90
2022-11-27T12:39:38.315Z,17.47
2022-11-27T12:42:22.152Z,18.33
2022-11-27T12:45:12.276Z,19.40
2022-11-27T12:47:56.515Z,13.17
2022-11-27T12:51:01.425Z,14.93
2022-11-27T12:53:37.895Z,17.47
2022-11-27T12:56:21.673Z,13.43
2022-11-27T12:59:03.691Z,16.10
2022-11-27T13:01:39.539Z,18.00
2022-11-27T13:04:48.333Z,18.63
2022-11-27T13:07:26.823Z,15.00
2022-11-27T13:10:00.840Z,12.17
2022-11-27T13:12:33.105Z,15.17
2022-11-27T13:15:36.122Z,17.63
2022-11-27T13:18:40.951Z,16.47
2022-11-27T13:21:15.275Z,15.07
2022-11-27T13:23:42.298Z,17.60
2022-11-27T13:26:26.148Z,15.00
2022-11-27T13:28:57.467Z,15.93
2022-11-27T13:31:28.273Z,12.50
2022-11-27T13:34:04.986Z,14.13
2022-11-27T13:36:38.776Z,16.17
2022-11-27T13:39:06.408Z,17.27
2022-11-27T13:41:41.561Z,13.43
2022-11-27T13:44:27.074Z,16.23
2022-11-27T13:46:58.658Z,17.53
2022-11-27T13:49:29.219Z,14.63
2022-11-27T13:52:16.503Z,15.07
2022-11-27T13:54:58.331Z,15.07
2022-11-27T13:57:26.937Z,13.63
2022-11-27T14:00:03.062Z,16.23
2022-11-27T14:02:50.097Z,13.30
2022-11-27T14:05:19.804Z,12.47
2022-11-27T14:07:53.353Z,14.67
2022-11-27T14:10:22.852Z,12.80
2022-11-27T14:13:03.607Z,14.00
2022-11-27T14:15:33.485Z,12.83
2022-11-27T14:18:18.130Z,13.23
2022-11-27T14:20:48.858Z,12.37
2022-11-27T14:23:27.526Z,17.17
2022-11-27T14:26:15.411Z,12.97
2022-11-27T14:28:55.418Z,16.80
2022-11-27T14:31:30.522Z,12.30
2022-11-27T14:36:44.724Z,11.93
2022-11-27T14:39:22.383Z,16.53
2022-11-27T14:42:06.577Z,14.93
2022-11-27T14:44:33.961Z,16.23
2022-11-27T14:47:04.259Z,12.83
2022-11-27T14:49:32.438Z,15.73
2022-11-27T14:52:14.154Z,13.77
2022-11-27T14:54:42.023Z,14.80
2022-11-27T14:57:16.482Z,14.90
2022-11-27T14:59:43.456Z,18.50
2022-11-27T15:02:18.486Z,17.17
2022-11-27T15:04:46.676Z,16.23
2022-11-27T15:07:20.340Z,15.17
2022-11-27T15:09:50.404Z,18.90
2022-11-27T15:12:22.147Z,17.50
2022-11-27T15:15:00.560Z,18.53
2022-11-27T15:17:32.847Z,18.77
2022-11-27T15:20:01.726Z,15.10
2022-11-27T15:22:28.648Z,16.60
2022-11-27T15:24:59.502Z,17.10
2022-11-27T15:27:26.298Z,22.03
2022-11-27T15:29:52.980Z,19.53
2022-11-27T15:32:25.770Z,16.10
2022-11-27T15:34:53.559Z,16.57
2022-11-27T15:37:39.253Z,16.60
2022-11-27T15:40:24.735Z,15.30
2022-11-27T15:42:51.520Z,17.17
2022-11-27T15:45:18.399Z,17.33
2022-11-27T15:47:45.431Z,15.90
2022-11-27T15:50:17.318Z,16.80
2022-11-27T15:52:44.251Z,16.53
2022-11-27T15:55:17.548Z,15.53
2022-11-27T15:57:44.539Z,17.70
2022-11-27T16:00:11.980Z,20.70
2022-11-27T16:02:39.708Z,19.97
2022-11-27T16:05:08.183Z,16.13
2022-11-27T16:07:35.285Z,18.83
2022-11-27T16:10:02.275Z,15.70
2022-11-27T16:12:28.965Z,16.60
2022-11-27T16:14:55.797Z,18.00
2022-11-27T16:17:22.639Z,17.13
2022-11-27T16:19:49.380Z,15.70
2022-11-27T16:22:16.120Z,19.53
2022-11-27T16:24:43.183Z,17.87
2022-11-27T16:27:10.158Z,16.23
2022-11-27T16:29:36.836Z,15.33
2022-11-27T16:32:03.883Z,17.30
2022-11-27T16:34:31.697Z,20.40
2022-11-27T16:36:58.395Z,17.33
2022-11-27T16:39:25.281Z,17.97
2022-11-27T16:41:52.086Z,18.60
2022-11-27T16:44:18.918Z,18.33
2022-11-27T16:46:45.900Z,19.33
2022-11-27T16:49:12.803Z,18.40
2022-11-27T16:51:40.289Z,17.33
2022-11-27T16:54:10.294Z,21.67
2022-11-27T16:56:38.675Z,19.70
2022-11-27T16:59:10.829Z,16.33
2022-11-27T17:01:38.141Z,17.87
2022-11-27T17:04:09.026Z,14.43
2022-11-27T17:06:38.107Z,13.53
2022-11-27T17:09:06.643Z,16.57
2022-11-27T17:11:37.003Z,14.67
2022-11-27T17:14:06.780Z,15.53
2022-11-27T17:16:34.611Z,16.13
2022-11-27T17:19:01.422Z,16.37
2022-11-27T17:21:30.313Z,14.00
2022-11-27T17:23:59.227Z,14.00
2022-11-27T17:26:27.778Z,15.30
2022-11-27T17:28:59.544Z,17.00
2022-11-27T17:31:33.605Z,12.87
2022-11-27T17:34:03.528Z,14.00
2022-11-27T17:36:36.515Z,16.90
2022-11-27T17:39:05.538Z,14.73
2022-11-27T17:41:32.542Z,16.67
2022-11-27T17:43:59.367Z,13.60
2022-11-27T17:46:28.770Z,14.33
2022-11-27T17:49:00.529Z,13.47
2022-11-27T17:51:29.737Z,11.93
2022-11-27T17:54:02.205Z,14.93
2022-11-27T17:56:29.560Z,15.57
2022-11-27T17:58:56.431Z,17.60
2022-11-27T18:01:28.526Z,16.47
2022-11-27T18:03:56.687Z,14.80
2022-11-27T18:06:23.406Z,14.97
2022-11-27T18:08:50.491Z,16.33
2022-11-27T18:11:20.778Z,14.23
2022-11-27T18:13:48.476Z,14.10
2022-11-27T18:16:21.117Z,18.07
2022-11-27T18:18:49.401Z,15.57
2022-11-27T18:21:19.353Z,16.17
2022-11-27T18:24:44.792Z,16.33
2022-11-27T18:29:22.438Z,12.60
2022-11-27T18:31:50.997Z,12.10
2022-11-27T18:34:18.289Z,14.03
2022-11-27T18:36:45.907Z,17.87
2022-11-27T18:39:13.077Z,15.63
2022-11-27T18:41:40.940Z,19.37
2022-11-27T18:44:07.849Z,14.23
2022-11-27T18:46:34.722Z,13.43
2022-11-27T18:49:01.633Z,14.53
2022-11-27T18:51:28.509Z,14.57
2022-11-27T18:53:56.598Z,16.03
2022-11-27T18:56:26.555Z,11.93
2022-11-27T18:58:54.306Z,13.53
2022-11-27T19:01:28.135Z,13.13
2022-11-27T19:03:55.489Z,13.60
2022-11-27T19:06:26.218Z,15.37
2022-11-27T19:08:53.116Z,13.83
2022-11-27T19:11:22.111Z,13.10
2022-11-27T19:13:50.488Z,16.60
2022-11-27T19:16:23.260Z,15.10
2022-11-27T19:18:50.492Z,16.77
2022-11-27T19:21:23.711Z,10.97
2022-11-27T19:23:51.631Z,13.50
2022-11-27T19:26:25.372Z,15.10
2022-11-27T19:28:54.364Z,16.47
2022-11-27T19:31:22.665Z,14.40
2022-11-27T19:33:58.850Z,18.43
2022-11-27T19:36:26.485Z,15.80
2022-11-27T19:38:55.867Z,15.50
2022-11-27T19:41:24.036Z,17.60
2022-11-27T19:43:50.993Z,16.37
2022-11-27T19:46:17.853Z,17.10
2022-11-27T19:48:45.210Z,18.97
2022-11-27T19:51:12.977Z,18.70
2022-11-27T19:53:41.071Z,20.07
2022-11-27T19:56:08.725Z,17.47
2022-11-27T19:58:36.040Z,19.13
2022-11-27T20:01:11.688Z,16.23
2022-11-27T20:03:38.851Z,18.07
2022-11-27T20:06:17.326Z,20.37
2022-11-27T20:08:45.805Z,21.30
2022-11-27T20:11:19.542Z,24.40
2022-11-27T20:13:46.826Z,20.47
2022-11-27T20:16:17.319Z,17.77
2022-11-27T20:18:44.778Z,24.97
2022-11-27T20:21:18.069Z,24.73
2022-11-27T20:23:46.448Z,23.80
2022-11-27T20:26:16.850Z,25.23
2022-11-27T20:28:44.625Z,23.53
2022-11-27T20:31:23.000Z,22.23
2022-11-27T20:33:54.539Z,21.13
2022-11-27T20:36:23.449Z,22.03
2022-11-27T20:38:51.736Z,20.60
2022-11-27T20:41:19.800Z,22.73
2022-11-27T20:43:50.777Z,20.87
2022-11-27T20:46:18.142Z,19.63
2022-11-27T20:48:49.204Z,21.73
2022-11-27T20:51:18.313Z,21.50
2022-11-27T20:53:47.571Z,21.33
2022-11-27T20:56:16.098Z,21.03
2022-11-27T20:58:44.798Z,21.17
2022-11-27T21:01:16.442Z,25.30
2022-11-27T21:03:43.631Z,20.50
2022-11-27T21:06:10.736Z,22.53
2022-11-27T21:08:37.695Z,23.10
2022-11-27T21:11:12.921Z,21.37
2022-11-27T21:13:39.910Z,22.03
2022-11-27T21:16:11.493Z,22.67
2022-11-27T21:18:39.197Z,20.80
2022-11-27T21:21:13.818Z,20.83
2022-11-27T21:23:42.004Z,21.37
2022-11-27T21:26:09.757Z,25.00
2022-11-27T21:28:36.649Z,26.77
2022-11-27T21:31:13.423Z,23.93
2022-11-27T21:33:40.108Z,21.33
2022-11-27T21:36:07.147Z,24.00
2022-11-27T21:38:33.913Z,22.17
2022-11-27T21:41:00.591Z,20.03
2022-11-27T21:43:28.488Z,22.57
2022-11-27T21:45:55.223Z,18.13
2022-11-27T21:48:21.942Z,21.93
2022-11-27T21:50:48.706Z,21.10
2022-11-27T21:53:15.632Z,22.20
2022-11-27T21:55:43.396Z,24.40
2022-11-27T21:58:10.108Z,24.67
2022-11-27T22:00:37.311Z,23.50
2022-11-27T22:03:04.205Z,26.47
2022-11-27T22:05:31.008Z,22.73
2022-11-27T22:07:57.802Z,22.80
2022-11-27T22:10:24.645Z,24.57
2022-11-27T22:12:51.320Z,24.00
2022-11-27T22:15:18.106Z,23.40
2022-11-27T22:17:44.939Z,25.17
2022-11-27T22:20:14.761Z,27.53
2022-11-27T22:22:41.756Z,25.83
2022-11-27T22:25:08.954Z,23.80
2022-11-27T22:27:35.619Z,22.40
2022-11-27T22:30:02.331Z,26.10
2022-11-27T22:32:29.092Z,24.87
2022-11-27T22:34:55.814Z,23.23
2022-11-27T22:37:27.068Z,25.20
2022-11-27T22:39:53.747Z,24.07
2022-11-27T22:42:20.430Z,24.77
2022-11-27T22:44:47.126Z,25.77
2022-11-27T22:47:13.792Z,23.73
2022-11-27T22:49:40.571Z,20.17
2022-11-27T22:52:07.342Z,23.43
2022-11-27T22:54:34.080Z,21.27
2022-11-27T22:57:00.782Z,19.60
2022-11-27T22:59:32.782Z,23.50
2022-11-27T23:02:00.984Z,23.30
2022-11-27T23:04:27.735Z,20.27
2022-11-27T23:06:54.529Z,21.23
2022-11-27T23:09:21.254Z,21.73
2022-11-27T23:11:48.365Z,21.93
2022-11-27T23:14:15.127Z,19.97
2022-11-27T23:16:42.674Z,21.43
2022-11-27T23:19:10.599Z,21.50
2022-11-27T23:21:38.818Z,21.17
2022-11-27T23:24:07.914Z,22.40
2022-11-27T23:26:34.978Z,20.37
2022-11-27T23:29:02.223Z,20.80
2022-11-27T23:31:35.502Z,18.90
2022-11-27T23:34:05.260Z,22.90
2022-11-27T23:36:32.737Z,23.80
2022-11-27T23:39:03.458Z,20.00
2022-11-27T23:41:30.625Z,18.37
2022-11-27T23:43:58.004Z,16.63
2022-11-27T23:46:26.928Z,19.77
2022-11-27T23:48:55.198Z,23.30
2022-11-27T23:51:24.892Z,18.97
2022-11-27T23:53:53.055Z,17.27
2022-11-27T23:56:22.927Z,19.00
2022-11-27T23:58:50.264Z,18.67
